createdAt,value
2023-04-11T00:02:16.135Z,100529.30
2023-04-11T00:04:44.483Z,100525.73
2023-04-11T00:07:12.403Z,100524.42
2023-04-11T00:09:40.707Z,100524.66
2023-04-11T00:12:08.660Z,100521.63
2023-04-11T00:14:36.629Z,100519.98
2023-04-11T00:17:06.127Z,100518.84
2023-04-11T00:19:34.186Z,100515.30
2023-04-11T00:22:02.900Z,100514.16
2023-04-11T00:24:31.286Z,100511.08
2023-04-11T00:26:59.710Z,100508.46
2023-04-11T00:29:34.153Z,100509.73
2023-04-11T00:32:02.253Z,100507.09
2023-04-11T00:34:30.916Z,100499.08
2023-04-11T00:36:59.233Z,100502.43
2023-04-11T00:39:30.551Z,100497.65
2023-04-11T00:42:08.358Z,100495.42
2023-04-11T00:44:36.689Z,100491.07
2023-04-11T00:47:07.655Z,100490.98
2023-04-11T00:49:36.569Z,100489.54
2023-04-11T00:52:05.158Z,100489.55
2023-04-11T00:54:34.050Z,100485.36
2023-04-11T00:57:04.233Z,100485.02
2023-04-11T00:59:33.084Z,100482.29
2023-04-11T01:02:02.083Z,100478.16
2023-04-11T01:04:30.319Z,100477.06
2023-04-11T01:07:06.384Z,100469.63
2023-04-11T01:09:36.431Z,100469.09
2023-04-11T01:12:06.512Z,100465.65
2023-04-11T01:14:34.533Z,100464.45
2023-04-11T01:17:02.949Z,100462.91
2023-04-11T01:19:31.415Z,100461.80
2023-04-11T01:22:01.850Z,100462.73
2023-04-11T01:24:30.819Z,100460.52
2023-04-11T01:26:58.852Z,100460.52
2023-04-11T01:29:26.911Z,100454.86
2023-04-11T01:31:54.807Z,100459.02
2023-04-11T01:34:28.409Z,100457.00
2023-04-11T01:36:56.638Z,100456.95
2023-04-11T01:39:25.201Z,100455.73
2023-04-11T01:41:56.979Z,100457.67
2023-04-11T01:44:27.418Z,100457.08
2023-04-11T01:46:56.289Z,100453.30
2023-04-11T01:49:26.145Z,100449.61
2023-04-11T01:51:54.332Z,100440.77
2023-04-11T01:54:22.395Z,100437.27
2023-04-11T01:56:50.374Z,100440.98
2023-04-11T01:59:19.770Z,100440.27
2023-04-11T02:01:48.114Z,100436.69
2023-04-11T02:04:16.508Z,100434.98
2023-04-11T02:06:44.519Z,100434.24
2023-04-11T02:09:12.977Z,100429.23
2023-04-11T02:11:41.092Z,100424.67
2023-04-11T02:14:10.023Z,100428.03
2023-04-11T02:16:55.216Z,100421.92
2023-04-11T02:19:26.007Z,100420.34
2023-04-11T02:21:54.200Z,100423.48
2023-04-11T02:24:22.103Z,100412.73
2023-04-11T02:26:50.087Z,100409.17
2023-04-11T02:29:27.846Z,100408.52
2023-04-11T02:32:02.448Z,100405.61
2023-04-11T02:34:30.983Z,100403.08
2023-04-11T02:36:59.337Z,100401.78
2023-04-11T02:39:27.820Z,100401.49
2023-04-11T02:41:57.417Z,100394.35
2023-04-11T02:44:26.421Z,100392.20
2023-04-11T02:46:56.264Z,100387.80
2023-04-11T02:49:25.700Z,100389.05
2023-04-11T02:51:54.211Z,100384.17
2023-04-11T02:54:22.221Z,100382.53
2023-04-11T02:56:51.009Z,100382.81
2023-04-11T02:59:19.559Z,100377.25
2023-04-11T03:01:47.830Z,100378.73
2023-04-11T03:04:16.243Z,100372.88
2023-04-11T03:06:55.530Z,100366.11
2023-04-11T03:09:24.090Z,100366.65
2023-04-11T03:11:52.191Z,100366.98
2023-04-11T03:14:20.397Z,100365.55
2023-04-11T03:16:48.556Z,100368.03
2023-04-11T03:19:16.644Z,100363.56
2023-04-11T03:21:44.917Z,100365.34
2023-04-11T03:24:13.359Z,100368.19
2023-04-11T03:26:42.130Z,100368.95
2023-04-11T03:29:12.876Z,100369.90
2023-04-11T03:31:59.822Z,100369.95
2023-04-11T03:34:29.266Z,100365.99
2023-04-11T03:36:58.804Z,100365.98
2023-04-11T03:39:27.487Z,100360.29
2023-04-11T03:41:58.576Z,100356.34
2023-04-11T03:44:27.959Z,100352.01
2023-04-11T03:46:56.809Z,100353.84
2023-04-11T03:49:26.631Z,100350.95
2023-04-11T03:51:56.716Z,100349.47
2023-04-11T03:54:25.709Z,100348.59
2023-04-11T03:56:53.770Z,100349.89
2023-04-11T03:59:27.192Z,100348.74
2023-04-11T04:02:50.420Z,100349.70
2023-04-11T04:05:18.713Z,100346.60
2023-04-11T04:07:46.909Z,100340.80
2023-04-11T04:10:22.216Z,100336.96
2023-04-11T04:12:53.826Z,100337.33
2023-04-11T04:15:25.305Z,100340.93
2023-04-11T04:17:54.867Z,100342.14
2023-04-11T04:20:35.052Z,100347.08
2023-04-11T04:23:04.719Z,100346.27
2023-04-11T04:25:45.683Z,100344.30
2023-04-11T04:28:17.077Z,100341.62
2023-04-11T04:34:55.135Z,100328.14
2023-04-11T04:37:39.523Z,100324.91
2023-04-11T04:40:31.730Z,100325.50
2023-04-11T04:43:09.502Z,100316.81
2023-04-11T04:45:42.930Z,100310.92
2023-04-11T04:48:13.773Z,100309.52
2023-04-11T04:50:41.790Z,100305.34
2023-04-11T04:53:09.919Z,100304.86
2023-04-11T04:55:39.574Z,100300.09
2023-04-11T04:58:08.269Z,100304.14
2023-04-11T05:00:36.700Z,100311.21
2023-04-11T05:03:08.776Z,100315.61
2023-04-11T05:05:37.167Z,100317.69
2023-04-11T05:08:05.891Z,100317.41
2023-04-11T05:10:34.399Z,100314.84
2023-04-11T05:13:02.346Z,100312.92
2023-04-11T05:15:30.455Z,100312.88
2023-04-11T05:17:58.512Z,100309.85
2023-04-11T05:20:29.721Z,100309.07
2023-04-11T05:22:59.440Z,100305.88
2023-04-11T05:25:27.418Z,100299.46
2023-04-11T05:27:56.367Z,100297.69
2023-04-11T05:30:25.439Z,100289.77
2023-04-11T05:32:53.462Z,100286.15
2023-04-11T05:35:22.287Z,100282.34
2023-04-11T05:37:53.102Z,100282.80
2023-04-11T05:40:21.448Z,100278.04
2023-04-11T05:42:51.078Z,100279.10
2023-04-11T05:45:19.841Z,100277.70
2023-04-11T05:47:47.819Z,100267.17
2023-04-11T05:50:16.476Z,100263.91
2023-04-11T05:52:44.407Z,100257.31
2023-04-11T05:55:12.425Z,100250.60
2023-04-11T05:57:40.602Z,100252.85
2023-04-11T06:00:13.416Z,100250.94
2023-04-11T06:02:42.949Z,100251.59
2023-04-11T06:05:12.243Z,100246.92
2023-04-11T06:07:41.390Z,100246.64
2023-04-11T06:10:10.114Z,100243.83
2023-04-11T06:12:38.088Z,100238.02
2023-04-11T06:15:06.669Z,100236.65
2023-04-11T06:17:34.874Z,100236.69
2023-04-11T06:20:06.205Z,100230.48
2023-04-11T06:22:34.643Z,100226.41
2023-04-11T06:25:03.089Z,100229.08
2023-04-11T06:27:31.322Z,100225.30
2023-04-11T06:29:59.265Z,100222.64
2023-04-11T06:32:27.481Z,100223.85
2023-04-11T06:34:55.518Z,100223.05
2023-04-11T06:37:23.907Z,100217.52
2023-04-11T06:39:51.821Z,100216.31
2023-04-11T06:42:19.929Z,100212.81
2023-04-11T06:44:48.833Z,100207.17
2023-04-11T06:47:17.053Z,100204.83
2023-04-11T06:49:44.988Z,100201.23
2023-04-11T06:52:13.086Z,100196.95
2023-04-11T06:54:41.009Z,100194.34
2023-04-11T06:57:10.606Z,100193.38
2023-04-11T06:59:39.000Z,100189.81
2023-04-11T07:02:07.929Z,100188.23
2023-04-11T07:04:36.098Z,100186.88
2023-04-11T07:07:04.609Z,100179.38
2023-04-11T07:09:32.671Z,100174.81
2023-04-11T07:12:01.589Z,100177.02
2023-04-11T07:14:29.637Z,100172.88
2023-04-11T07:16:58.891Z,100172.96
2023-04-11T07:19:26.952Z,100170.09
2023-04-11T07:21:55.274Z,100167.96
2023-04-11T07:24:23.147Z,100161.77
2023-04-11T07:26:52.032Z,100157.90
2023-04-11T07:29:20.481Z,100156.02
2023-04-11T07:31:49.668Z,100146.96
2023-04-11T07:34:17.643Z,100148.48
2023-04-11T07:37:01.041Z,100144.92
2023-04-11T07:39:29.684Z,100145.54
2023-04-11T07:41:57.971Z,100147.83
2023-04-11T07:44:27.197Z,100146.91
2023-04-11T07:46:55.733Z,100146.54
2023-04-11T07:49:23.771Z,100142.48
2023-04-11T07:51:51.783Z,100135.41
2023-04-11T07:54:20.118Z,100128.56
2023-04-11T07:56:48.144Z,100124.88
2023-04-11T07:59:16.155Z,100118.36
2023-04-11T08:01:44.232Z,100115.77
2023-04-11T08:04:12.752Z,100113.47
2023-04-11T08:06:40.863Z,100112.29
2023-04-11T08:09:08.927Z,100113.19
2023-04-11T08:11:37.098Z,100115.63
2023-04-11T08:14:05.640Z,100110.96
2023-04-11T08:16:35.688Z,100107.70
2023-04-11T08:19:03.767Z,100108.08
2023-04-11T08:21:32.702Z,100106.88
2023-04-11T08:24:00.679Z,100100.61
2023-04-11T08:26:28.747Z,100092.41
2023-04-11T08:28:57.068Z,100090.66
2023-04-11T08:31:25.243Z,100088.17
2023-04-11T08:33:53.266Z,100086.47
2023-04-11T08:36:21.258Z,100084.25
2023-04-11T08:38:49.450Z,100080.09
2023-04-11T08:41:17.381Z,100075.50
2023-04-11T08:43:46.997Z,100066.61
2023-04-11T08:46:14.974Z,100063.67
2023-04-11T08:48:43.072Z,100060.89
2023-04-11T08:51:12.757Z,100053.94
2023-04-11T08:53:41.810Z,100060.08
2023-04-11T08:56:16.437Z,100050.73
2023-04-11T08:58:44.542Z,100046.49
2023-04-11T09:01:32.691Z,100042.65
2023-04-11T09:04:05.600Z,100032.94
2023-04-11T09:06:34.362Z,100026.34
2023-04-11T09:09:06.461Z,100017.85
2023-04-11T09:11:56.091Z,100021.03
2023-04-11T09:14:26.244Z,100009.95
2023-04-11T09:17:02.930Z,100006.08
2023-04-11T09:19:32.701Z,99997.56
2023-04-11T09:22:04.870Z,99990.69
2023-04-11T09:24:35.235Z,99985.47
2023-04-11T09:27:19.580Z,99983.16
2023-04-11T09:29:48.983Z,99972.02
2023-04-11T09:32:34.326Z,99961.42
2023-04-11T09:35:16.956Z,99954.23
2023-04-11T09:37:46.843Z,99950.23
2023-04-11T09:40:16.623Z,99946.68
2023-04-11T09:42:46.191Z,99942.75
2023-04-11T09:45:18.758Z,99943.13
2023-04-11T09:47:48.645Z,99938.63
2023-04-11T09:50:17.885Z,99932.79
2023-04-11T09:52:47.019Z,99931.27
2023-04-11T09:55:18.358Z,99924.31
2023-04-11T09:57:54.228Z,99923.77
2023-04-11T10:00:24.403Z,99922.20
2023-04-11T10:02:53.698Z,99921.05
2023-04-11T10:05:30.461Z,99915.65
2023-04-11T10:08:21.144Z,99912.42
2023-04-11T10:10:51.000Z,99914.23
2023-04-11T10:13:40.288Z,99910.04
2023-04-11T10:16:12.273Z,99905.39
2023-04-11T10:19:09.421Z,99906.66
2023-04-11T10:21:37.415Z,99905.52
2023-04-11T10:24:17.424Z,99899.95
2023-04-11T10:26:45.897Z,99895.52
2023-04-11T10:29:38.774Z,99895.92
2023-04-11T10:32:19.079Z,99893.59
2023-04-11T10:34:50.058Z,99895.70
2023-04-11T10:37:19.434Z,99885.54
2023-04-11T10:39:53.428Z,99883.44
2023-04-11T10:42:34.375Z,99887.26
2023-04-11T10:45:24.780Z,99885.37
2023-04-11T10:47:58.810Z,99879.30
2023-04-11T10:50:26.859Z,99872.59
2023-04-11T10:53:02.828Z,99878.64
2023-04-11T10:55:42.536Z,99877.79
2023-04-11T10:58:22.272Z,99876.02
2023-04-11T11:04:40.160Z,99870.17
2023-04-11T11:07:13.641Z,99871.34
2023-04-11T11:09:41.551Z,99867.67
2023-04-11T11:12:11.655Z,99861.75
2023-04-11T11:14:41.823Z,99858.61
2023-04-11T11:17:12.457Z,99856.31
2023-04-11T11:19:47.672Z,99853.92
2023-04-11T11:22:25.778Z,99852.46
2023-04-11T11:24:54.233Z,99847.58
2023-04-11T11:27:24.691Z,99842.96
2023-04-11T11:29:53.314Z,99835.08
2023-04-11T11:32:28.905Z,99828.91
2023-04-11T11:34:58.438Z,99830.81
2023-04-11T11:37:27.090Z,99831.07
2023-04-11T11:39:55.435Z,99828.80
2023-04-11T11:42:23.395Z,99830.69
2023-04-11T11:44:51.309Z,99824.50
2023-04-11T11:47:19.402Z,99825.42
2023-04-11T11:49:51.782Z,99819.96
2023-04-11T11:52:37.094Z,99821.11
2023-04-11T11:55:18.988Z,99821.10
2023-04-11T11:57:49.098Z,99814.79
2023-04-11T12:00:28.043Z,99813.46
2023-04-11T12:02:58.152Z,99817.63
2023-04-11T12:05:33.011Z,99811.77
2023-04-11T12:08:04.541Z,99813.37
2023-04-11T12:10:38.865Z,99810.86
2023-04-11T12:13:16.131Z,99807.94
2023-04-11T12:15:49.368Z,99811.20
2023-04-11T12:18:21.037Z,99800.05
2023-04-11T12:20:50.062Z,99800.01
2023-04-11T12:23:18.775Z,99801.48
2023-04-11T12:25:47.334Z,99795.14
2023-04-11T12:28:15.912Z,99797.30
2023-04-11T12:30:43.894Z,99790.88
2023-04-11T12:33:12.261Z,99784.92
2023-04-11T12:35:40.448Z,99783.38
2023-04-11T12:38:09.186Z,99777.21
2023-04-11T12:40:37.947Z,99771.09
2023-04-11T12:43:06.125Z,99766.69
2023-04-11T12:45:34.339Z,99761.65
2023-04-11T12:48:02.420Z,99755.30
2023-04-11T12:50:30.738Z,99759.04
2023-04-11T12:53:00.210Z,99751.73
2023-04-11T12:55:29.017Z,99745.52
2023-04-11T12:57:57.095Z,99750.90
2023-04-11T13:00:25.904Z,99743.32
2023-04-11T13:02:54.835Z,99738.83
2023-04-11T13:05:23.446Z,99731.00
2023-04-11T13:07:52.146Z,99730.34
2023-04-11T13:10:20.386Z,99718.45
2023-04-11T13:12:48.727Z,99716.72
2023-04-11T13:15:17.594Z,99714.88
2023-04-11T13:17:45.820Z,99710.76
2023-04-11T13:20:14.467Z,99710.16
2023-04-11T13:22:43.241Z,99702.94
2023-04-11T13:25:12.351Z,99699.55
2023-04-11T13:27:42.070Z,99702.25
2023-04-11T13:30:11.229Z,99699.17
2023-04-11T13:32:39.608Z,99691.92
2023-04-11T13:35:08.301Z,99694.73
2023-04-11T13:37:36.589Z,99692.48
2023-04-11T13:40:08.345Z,99693.09
2023-04-11T13:42:36.617Z,99682.70
2023-04-11T13:45:05.058Z,99682.13
2023-04-11T13:47:35.463Z,99673.88
2023-04-11T13:50:07.319Z,99671.08
2023-04-11T13:52:35.276Z,99666.95
2023-04-11T13:55:04.075Z,99664.83
2023-04-11T13:57:32.202Z,99663.67
2023-04-11T14:00:00.389Z,99659.12
2023-04-11T14:02:28.602Z,99657.41
2023-04-11T14:05:16.636Z,99647.15
2023-04-11T14:07:44.639Z,99650.58
2023-04-11T14:10:12.624Z,99646.23
2023-04-11T14:12:40.896Z,99647.05
2023-04-11T14:15:09.600Z,99638.18
2023-04-11T14:17:37.924Z,99641.62
2023-04-11T14:20:07.201Z,99641.71
2023-04-11T14:22:35.933Z,99637.15
2023-04-11T14:25:05.605Z,99636.98
2023-04-11T14:27:33.701Z,99632.23
2023-04-11T14:30:01.999Z,99624.80
2023-04-11T14:32:30.078Z,99630.18
2023-04-11T14:35:00.033Z,99627.98
2023-04-11T14:37:28.351Z,99628.33
2023-04-11T14:39:56.532Z,99623.96
2023-04-11T14:42:24.506Z,99626.92
2023-04-11T14:44:53.547Z,99624.77
2023-04-11T14:47:21.494Z,99620.95
2023-04-11T14:49:49.578Z,99616.97
2023-04-11T14:52:17.565Z,99614.63
2023-04-11T14:54:45.566Z,99611.93
2023-04-11T14:57:14.389Z,99612.02
2023-04-11T14:59:45.608Z,99608.21
2023-04-11T15:02:14.131Z,99612.73
2023-04-11T15:04:42.295Z,99612.77
2023-04-11T15:07:10.393Z,99612.52
2023-04-11T15:09:38.610Z,99610.33
2023-04-11T15:12:06.712Z,99616.33
2023-04-11T15:14:35.474Z,99616.13
2023-04-11T15:17:03.577Z,99610.95
2023-04-11T15:19:31.633Z,99602.91
2023-04-11T15:21:59.609Z,99609.47
2023-04-11T15:24:27.877Z,99603.56
2023-04-11T15:26:56.800Z,99605.31
2023-04-11T15:29:25.595Z,99606.52
2023-04-11T15:31:54.138Z,99607.77
2023-04-11T15:34:23.444Z,99602.94
2023-04-11T15:36:51.429Z,99598.54
2023-04-11T15:39:19.600Z,99597.98
2023-04-11T15:41:47.693Z,99593.88
2023-04-11T15:44:16.101Z,99591.23
2023-04-11T15:46:46.940Z,99588.27
2023-04-11T15:49:16.932Z,99585.67
2023-04-11T15:51:46.522Z,99581.17
2023-04-11T15:54:14.582Z,99580.09
2023-04-11T15:56:42.565Z,99581.08
2023-04-11T15:59:13.467Z,99585.45
2023-04-11T16:01:41.790Z,99579.25
2023-04-11T16:04:11.419Z,99580.08
2023-04-11T16:06:39.880Z,99574.69
2023-04-11T16:09:08.830Z,99576.77
2023-04-11T16:11:38.731Z,99576.00
2023-04-11T16:14:07.030Z,99574.77
2023-04-11T16:16:35.186Z,99574.16
2023-04-11T16:19:03.561Z,99570.89
2023-04-11T16:21:31.799Z,99569.77
2023-04-11T16:24:00.032Z,99570.47
2023-04-11T16:26:28.435Z,99571.01
2023-04-11T16:28:56.672Z,99566.01
2023-04-11T16:31:25.512Z,99565.16
2023-04-11T16:33:55.172Z,99562.39
2023-04-11T16:36:23.921Z,99562.56
2023-04-11T16:38:52.113Z,99561.11
2023-04-11T16:41:20.310Z,99558.86
2023-04-11T16:43:48.338Z,99554.21
2023-04-11T16:46:19.484Z,99552.35
2023-04-11T16:48:47.608Z,99552.94
2023-04-11T16:51:18.368Z,99553.52
2023-04-11T16:53:47.557Z,99549.85
2023-04-11T16:56:18.404Z,99551.27
2023-04-11T16:58:47.806Z,99550.80
2023-04-11T17:01:15.847Z,99546.77
2023-04-11T17:03:45.005Z,99546.82
2023-04-11T17:06:15.071Z,99544.42
2023-04-11T17:08:44.476Z,99541.33
2023-04-11T17:11:13.978Z,99539.77
2023-04-11T17:13:45.260Z,99540.27
2023-04-11T17:16:13.859Z,99539.98
2023-04-11T17:18:42.627Z,99539.54
2023-04-11T17:21:11.433Z,99544.59
2023-04-11T17:23:43.302Z,99538.84
2023-04-11T17:26:12.478Z,99541.67
2023-04-11T17:28:41.141Z,99540.68
2023-04-11T17:31:20.174Z,99539.36
2023-04-11T17:33:48.191Z,99540.09
2023-04-11T17:36:16.327Z,99538.71
2023-04-11T17:38:45.410Z,99542.50
2023-04-11T17:41:15.721Z,99542.11
2023-04-11T17:43:44.256Z,99545.60
2023-04-11T17:46:13.095Z,99545.92
2023-04-11T17:48:42.241Z,99545.02
2023-04-11T17:51:10.768Z,99544.66
2023-04-11T17:53:39.348Z,99540.14
2023-04-11T17:56:08.270Z,99541.16
2023-04-11T17:58:37.245Z,99549.49
2023-04-11T18:01:11.290Z,99551.55
2023-04-11T18:03:40.261Z,99555.16
2023-04-11T18:06:08.839Z,99558.91
2023-04-11T18:11:12.264Z,99569.05
2023-04-11T18:13:42.876Z,99571.08
2023-04-11T18:16:11.618Z,99570.00
2023-04-11T18:18:40.129Z,99571.67
2023-04-11T18:21:09.030Z,99573.88
2023-04-11T18:23:38.956Z,99574.66
2023-04-11T18:26:07.296Z,99577.52
2023-04-11T18:28:35.426Z,99578.67
2023-04-11T18:31:04.086Z,99577.22
2023-04-11T18:33:33.724Z,99577.85
2023-04-11T18:36:02.492Z,99573.98
2023-04-11T18:38:30.782Z,99577.70
2023-04-11T18:41:02.570Z,99577.07
2023-04-11T18:43:33.604Z,99582.14
2023-04-11T18:46:26.871Z,99584.30
2023-04-11T18:48:55.134Z,99593.73
2023-04-11T18:51:23.614Z,99593.14
2023-04-11T18:53:52.853Z,99590.11
2023-04-11T18:56:21.073Z,99593.33
2023-04-11T18:58:52.585Z,99595.16
2023-04-11T19:04:36.492Z,99598.85
2023-04-11T19:07:04.928Z,99597.95
2023-04-11T19:09:33.883Z,99601.04
2023-04-11T19:12:02.078Z,99597.56
2023-04-11T19:14:30.305Z,99597.14
2023-04-11T19:16:58.921Z,99596.54
2023-04-11T19:19:28.468Z,99593.33
2023-04-11T19:21:57.465Z,99599.63
2023-04-11T19:24:25.709Z,99596.77
2023-04-11T19:26:53.643Z,99598.58
2023-04-11T19:29:21.842Z,99595.55
2023-04-11T19:31:50.088Z,99595.14
2023-04-11T19:34:18.128Z,99593.00
2023-04-11T19:36:46.490Z,99596.17
2023-04-11T19:39:14.800Z,99595.56
2023-04-11T19:41:46.674Z,99597.86
2023-04-11T19:44:14.841Z,99596.75
2023-04-11T19:46:42.968Z,99596.73
2023-04-11T19:49:11.317Z,99593.71
2023-04-11T19:51:40.227Z,99598.95
2023-04-11T19:54:08.543Z,99601.41
2023-04-11T19:56:39.124Z,99601.65
2023-04-11T19:59:07.060Z,99602.90
2023-04-11T20:01:36.095Z,99605.71
2023-04-11T20:04:04.878Z,99608.84
2023-04-11T20:06:34.946Z,99606.44
2023-04-11T20:09:04.358Z,99603.68
2023-04-11T20:11:33.220Z,99604.38
2023-04-11T20:14:01.388Z,99601.46
2023-04-11T20:16:30.764Z,99609.23
2023-04-11T20:18:59.946Z,99600.10
2023-04-11T20:21:28.298Z,99600.44
2023-04-11T20:23:56.711Z,99598.34
2023-04-11T20:26:25.032Z,99600.02
2023-04-11T20:28:53.176Z,99597.06
2023-04-11T20:31:21.377Z,99593.05
2023-04-11T20:33:49.621Z,99593.34
2023-04-11T20:36:17.994Z,99583.81
2023-04-11T20:38:46.221Z,99591.86
2023-04-11T20:41:15.029Z,99594.39
2023-04-11T20:43:43.043Z,99594.52
2023-04-11T20:46:13.565Z,99598.64
2023-04-11T20:48:42.902Z,99597.91
2023-04-11T20:51:11.686Z,99600.14
2023-04-11T20:53:39.957Z,99598.90
2023-04-11T20:56:07.897Z,99602.16
2023-04-11T20:58:35.975Z,99606.98
2023-04-11T21:01:03.964Z,99604.56
2023-04-11T21:03:37.403Z,99610.44
2023-04-11T21:06:07.582Z,99611.16
2023-04-11T21:08:37.535Z,99614.95
2023-04-11T21:11:06.383Z,99618.10
2023-04-11T21:13:34.376Z,99617.77
2023-04-11T21:16:02.243Z,99620.02
2023-04-11T21:18:30.467Z,99613.30
2023-04-11T21:20:58.710Z,99618.16
2023-04-11T21:23:27.021Z,99613.70
2023-04-11T21:25:54.966Z,99613.39
2023-04-11T21:28:22.926Z,99607.36
2023-04-11T21:30:51.020Z,99606.01
2023-04-11T21:33:18.997Z,99605.01
2023-04-11T21:35:47.177Z,99610.38
2023-04-11T21:38:15.664Z,99616.10
2023-04-11T21:40:43.668Z,99609.20
2023-04-11T21:43:13.329Z,99610.25
2023-04-11T21:45:41.582Z,99608.69
2023-04-11T21:48:09.815Z,99608.53
2023-04-11T21:50:37.965Z,99602.83
2023-04-11T21:53:06.050Z,99604.76
2023-04-11T21:55:34.242Z,99597.53
2023-04-11T21:58:02.359Z,99596.84
2023-04-11T22:00:30.478Z,99599.10
2023-04-11T22:02:58.622Z,99601.02
2023-04-11T22:05:27.504Z,99610.19
2023-04-11T22:08:12.772Z,99615.90
2023-04-11T22:10:48.373Z,99618.16
2023-04-11T22:13:19.119Z,99616.27
2023-04-11T22:16:05.189Z,99613.35
2023-04-11T22:18:38.295Z,99611.11
2023-04-11T22:21:09.771Z,99606.80
2023-04-11T22:23:38.331Z,99605.94
2023-04-11T22:26:06.570Z,99607.31
2023-04-11T22:28:34.518Z,99611.46
2023-04-11T22:31:03.555Z,99615.94
2023-04-11T22:33:31.941Z,99611.98
2023-04-11T22:35:59.930Z,99612.85
2023-04-11T22:38:28.137Z,99609.75
2023-04-11T22:40:56.053Z,99609.75
2023-04-11T22:43:24.201Z,99611.14
2023-04-11T22:45:53.364Z,99609.76
2023-04-11T22:48:21.479Z,99608.20
2023-04-11T22:50:52.971Z,99606.48
2023-04-11T22:53:22.188Z,99608.04
2023-04-11T22:55:50.389Z,99600.79
2023-04-11T22:58:18.448Z,99604.92
2023-04-11T23:00:47.513Z,99601.48
2023-04-11T23:03:16.423Z,99610.10
2023-04-11T23:05:44.629Z,99616.32
2023-04-11T23:08:12.977Z,99615.97
2023-04-11T23:10:41.132Z,99617.34
2023-04-11T23:13:09.433Z,99610.09
2023-04-11T23:15:37.914Z,99612.50
2023-04-11T23:18:06.015Z,99609.90
2023-04-11T23:20:37.382Z,99609.72
2023-04-11T23:23:05.845Z,99602.13
2023-04-11T23:25:37.333Z,99594.89
2023-04-11T23:28:05.493Z,99598.85
2023-04-11T23:30:35.868Z,99598.48
2023-04-11T23:33:06.068Z,99593.98
2023-04-11T23:35:35.448Z,99578.98
2023-04-11T23:38:04.048Z,99574.32
2023-04-11T23:40:32.835Z,99568.98
2023-04-11T23:43:02.253Z,99578.12
2023-04-11T23:45:30.768Z,99594.17
2023-04-11T23:47:58.847Z,99606.60
2023-04-11T23:50:27.475Z,99615.92
2023-04-11T23:52:55.517Z,99617.83
2023-04-11T23:55:23.583Z,99613.69
2023-04-11T23:57:51.602Z,99593.16
